sensor_id;sensor_type;location;lat;lon;timestamp;P1;durP1;ratioP1;P2;durP2;ratioP2
15889;SDS011;8043;49.388;12.128;2022-10-31T00:04:46;8.43;;;3.50;;
15889;SDS011;8043;49.388;12.128;2022-10-31T00:09:48;11.80;;;3.57;;
15889;SDS011;8043;49.388;12.128;2022-10-31T00:14:50;11.30;;;3.40;;
15889;SDS011;8043;49.388;12.128;2022-10-31T00:19:53;6.43;;;3.17;;
15889;SDS011;8043;49.388;12.128;2022-10-31T00:24:55;5.33;;;2.97;;
15889;SDS011;8043;49.388;12.128;2022-10-31T00:29:57;8.90;;;2.90;;
15889;SDS011;8043;49.388;12.128;2022-10-31T00:35:00;6.85;;;2.95;;
15889;SDS011;8043;49.388;12.128;2022-10-31T00:40:02;3.87;;;2.73;;
15889;SDS011;8043;49.388;12.128;2022-10-31T00:45:05;4.40;;;2.80;;
15889;SDS011;8043;49.388;12.128;2022-10-31T00:50:07;6.17;;;2.50;;
15889;SDS011;8043;49.388;12.128;2022-10-31T00:55:10;8.37;;;3.07;;
15889;SDS011;8043;49.388;12.128;2022-10-31T01:00:12;5.53;;;2.80;;
15889;SDS011;8043;49.388;12.128;2022-10-31T01:05:15;6.67;;;2.90;;
15889;SDS011;8043;49.388;12.128;2022-10-31T01:10:17;4.63;;;2.90;;
15889;SDS011;8043;49.388;12.128;2022-10-31T01:15:20;5.77;;;2.93;;
15889;SDS011;8043;49.388;12.128;2022-10-31T01:20:23;4.20;;;2.87;;
15889;SDS011;8043;49.388;12.128;2022-10-31T01:25:25;3.27;;;2.33;;
15889;SDS011;8043;49.388;12.128;2022-10-31T01:30:27;8.40;;;4.43;;
15889;SDS011;8043;49.388;12.128;2022-10-31T01:35:29;8.60;;;3.60;;
15889;SDS011;8043;49.388;12.128;2022-10-31T01:40:31;4.53;;;2.80;;
15889;SDS011;8043;49.388;12.128;2022-10-31T01:45:34;5.17;;;2.87;;
15889;SDS011;8043;49.388;12.128;2022-10-31T01:50:36;4.27;;;3.13;;
15889;SDS011;8043;49.388;12.128;2022-10-31T01:55:41;5.10;;;2.60;;
15889;SDS011;8043;49.388;12.128;2022-10-31T02:00:45;6.40;;;2.30;;
15889;SDS011;8043;49.388;12.128;2022-10-31T02:05:49;6.07;;;2.73;;
15889;SDS011;8043;49.388;12.128;2022-10-31T02:10:52;5.57;;;3.13;;
15889;SDS011;8043;49.388;12.128;2022-10-31T02:15:56;4.00;;;2.57;;
15889;SDS011;8043;49.388;12.128;2022-10-31T02:21:02;5.90;;;3.23;;
15889;SDS011;8043;49.388;12.128;2022-10-31T02:31:33;10.50;;;2.93;;
15889;SDS011;8043;49.388;12.128;2022-10-31T02:36:43;5.57;;;2.60;;
15889;SDS011;8043;49.388;12.128;2022-10-31T02:47:26;3.90;;;2.60;;
15889;SDS011;8043;49.388;12.128;2022-10-31T02:52:31;5.23;;;2.83;;
15889;SDS011;8043;49.388;12.128;2022-10-31T02:57:34;3.57;;;2.13;;
15889;SDS011;8043;49.388;12.128;2022-10-31T03:07:48;5.20;;;2.00;;
15889;SDS011;8043;49.388;12.128;2022-10-31T03:23:19;7.00;;;2.90;;
15889;SDS011;8043;49.388;12.128;2022-10-31T03:28:28;4.03;;;2.00;;
15889;SDS011;8043;49.388;12.128;2022-10-31T03:33:29;5.30;;;2.67;;
15889;SDS011;8043;49.388;12.128;2022-10-31T03:38:33;4.23;;;2.77;;
15889;SDS011;8043;49.388;12.128;2022-10-31T03:43:37;4.30;;;2.80;;
15889;SDS011;8043;49.388;12.128;2022-10-31T03:48:41;3.23;;;2.40;;
15889;SDS011;8043;49.388;12.128;2022-10-31T03:53:52;5.53;;;2.87;;
15889;SDS011;8043;49.388;12.128;2022-10-31T04:04:08;4.10;;;2.37;;
15889;SDS011;8043;49.388;12.128;2022-10-31T04:09:11;3.87;;;2.30;;
15889;SDS011;8043;49.388;12.128;2022-10-31T04:14:14;2.17;;;1.97;;
15889;SDS011;8043;49.388;12.128;2022-10-31T04:19:16;2.83;;;2.07;;
15889;SDS011;8043;49.388;12.128;2022-10-31T04:24:19;8.37;;;2.77;;
15889;SDS011;8043;49.388;12.128;2022-10-31T04:29:21;4.83;;;2.40;;
15889;SDS011;8043;49.388;12.128;2022-10-31T04:34:23;4.37;;;2.57;;
15889;SDS011;8043;49.388;12.128;2022-10-31T04:39:25;3.83;;;2.57;;
15889;SDS011;8043;49.388;12.128;2022-10-31T04:44:27;5.00;;;2.90;;
15889;SDS011;8043;49.388;12.128;2022-10-31T04:49:30;3.13;;;2.50;;
15889;SDS011;8043;49.388;12.128;2022-10-31T04:54:32;4.00;;;2.20;;
15889;SDS011;8043;49.388;12.128;2022-10-31T04:59:34;6.63;;;3.67;;
15889;SDS011;8043;49.388;12.128;2022-10-31T05:04:36;4.60;;;2.27;;
15889;SDS011;8043;49.388;12.128;2022-10-31T05:09:39;5.40;;;2.97;;
15889;SDS011;8043;49.388;12.128;2022-10-31T05:14:41;5.50;;;2.37;;
15889;SDS011;8043;49.388;12.128;2022-10-31T05:19:43;3.63;;;2.30;;
15889;SDS011;8043;49.388;12.128;2022-10-31T05:24:45;4.67;;;2.17;;
15889;SDS011;8043;49.388;12.128;2022-10-31T05:29:48;2.37;;;2.17;;
15889;SDS011;8043;49.388;12.128;2022-10-31T05:34:50;3.17;;;2.13;;
15889;SDS011;8043;49.388;12.128;2022-10-31T05:39:52;6.63;;;2.90;;
15889;SDS011;8043;49.388;12.128;2022-10-31T05:44:56;3.03;;;1.83;;
15889;SDS011;8043;49.388;12.128;2022-10-31T05:49:58;6.67;;;3.40;;
15889;SDS011;8043;49.388;12.128;2022-10-31T05:55:01;4.27;;;2.47;;
15889;SDS011;8043;49.388;12.128;2022-10-31T06:00:04;2.70;;;2.03;;
15889;SDS011;8043;49.388;12.128;2022-10-31T06:05:07;2.70;;;2.13;;
15889;SDS011;8043;49.388;12.128;2022-10-31T06:10:10;6.63;;;2.00;;
15889;SDS011;8043;49.388;12.128;2022-10-31T06:15:12;2.83;;;2.07;;
15889;SDS011;8043;49.388;12.128;2022-10-31T06:20:17;2.73;;;1.93;;
15889;SDS011;8043;49.388;12.128;2022-10-31T06:25:19;3.83;;;2.33;;
15889;SDS011;8043;49.388;12.128;2022-10-31T06:30:21;3.00;;;2.00;;
15889;SDS011;8043;49.388;12.128;2022-10-31T06:35:23;3.70;;;2.17;;
15889;SDS011;8043;49.388;12.128;2022-10-31T06:40:26;5.63;;;2.53;;
15889;SDS011;8043;49.388;12.128;2022-10-31T06:45:28;5.27;;;2.70;;
15889;SDS011;8043;49.388;12.128;2022-10-31T06:50:30;5.17;;;2.40;;
15889;SDS011;8043;49.388;12.128;2022-10-31T06:55:33;3.13;;;1.90;;
15889;SDS011;8043;49.388;12.128;2022-10-31T07:00:35;2.00;;;1.33;;
15889;SDS011;8043;49.388;12.128;2022-10-31T07:05:37;2.30;;;1.80;;
15889;SDS011;8043;49.388;12.128;2022-10-31T07:10:40;3.53;;;2.00;;
15889;SDS011;8043;49.388;12.128;2022-10-31T07:15:44;2.80;;;2.00;;
15889;SDS011;8043;49.388;12.128;2022-10-31T07:20:47;2.10;;;1.70;;
15889;SDS011;8043;49.388;12.128;2022-10-31T07:25:53;3.00;;;2.03;;
15889;SDS011;8043;49.388;12.128;2022-10-31T07:30:57;4.77;;;2.63;;
15889;SDS011;8043;49.388;12.128;2022-10-31T07:35:59;2.77;;;2.03;;
15889;SDS011;8043;49.388;12.128;2022-10-31T07:41:01;3.37;;;2.20;;
15889;SDS011;8043;49.388;12.128;2022-10-31T07:46:04;8.37;;;4.60;;
15889;SDS011;8043;49.388;12.128;2022-10-31T07:51:06;8.13;;;4.80;;
15889;SDS011;8043;49.388;12.128;2022-10-31T07:56:08;9.27;;;4.90;;
15889;SDS011;8043;49.388;12.128;2022-10-31T08:01:11;8.17;;;3.80;;
15889;SDS011;8043;49.388;12.128;2022-10-31T08:06:14;8.35;;;3.50;;
15889;SDS011;8043;49.388;12.128;2022-10-31T08:11:16;7.03;;;3.75;;
15889;SDS011;8043;49.388;12.128;2022-10-31T08:16:18;11.10;;;4.37;;
15889;SDS011;8043;49.388;12.128;2022-10-31T08:21:21;11.07;;;4.70;;
15889;SDS011;8043;49.388;12.128;2022-10-31T08:26:23;9.83;;;4.77;;
15889;SDS011;8043;49.388;12.128;2022-10-31T08:31:26;8.13;;;4.23;;
15889;SDS011;8043;49.388;12.128;2022-10-31T08:36:29;9.20;;;3.83;;
15889;SDS011;8043;49.388;12.128;2022-10-31T08:41:31;8.27;;;4.30;;
15889;SDS011;8043;49.388;12.128;2022-10-31T08:46:33;8.50;;;4.33;;
15889;SDS011;8043;49.388;12.128;2022-10-31T08:51:36;10.70;;;5.60;;
15889;SDS011;8043;49.388;12.128;2022-10-31T08:56:38;9.63;;;5.40;;
15889;SDS011;8043;49.388;12.128;2022-10-31T09:01:40;7.57;;;3.97;;
15889;SDS011;8043;49.388;12.128;2022-10-31T09:06:42;9.33;;;3.90;;
15889;SDS011;8043;49.388;12.128;2022-10-31T09:11:45;4.43;;;2.97;;
15889;SDS011;8043;49.388;12.128;2022-10-31T09:16:47;6.27;;;3.10;;
15889;SDS011;8043;49.388;12.128;2022-10-31T09:21:51;7.37;;;3.33;;
15889;SDS011;8043;49.388;12.128;2022-10-31T09:26:54;5.77;;;3.27;;
15889;SDS011;8043;49.388;12.128;2022-10-31T09:31:56;10.77;;;3.57;;
15889;SDS011;8043;49.388;12.128;2022-10-31T09:36:59;8.53;;;3.63;;
15889;SDS011;8043;49.388;12.128;2022-10-31T09:52:54;8.00;;;3.13;;
15889;SDS011;8043;49.388;12.128;2022-10-31T09:57:57;6.00;;;3.50;;
15889;SDS011;8043;49.388;12.128;2022-10-31T10:18:45;6.57;;;3.70;;
15889;SDS011;8043;49.388;12.128;2022-10-31T10:34:32;7.77;;;3.13;;
15889;SDS011;8043;49.388;12.128;2022-10-31T10:39:41;9.13;;;3.73;;
15889;SDS011;8043;49.388;12.128;2022-10-31T10:44:44;7.43;;;3.30;;
15889;SDS011;8043;49.388;12.128;2022-10-31T10:50:11;7.47;;;3.53;;
15889;SDS011;8043;49.388;12.128;2022-10-31T11:00:41;7.40;;;3.50;;
15889;SDS011;8043;49.388;12.128;2022-10-31T11:16:30;5.47;;;3.70;;
15889;SDS011;8043;49.388;12.128;2022-10-31T11:21:36;10.23;;;4.50;;
15889;SDS011;8043;49.388;12.128;2022-10-31T11:26:42;7.53;;;3.87;;
15889;SDS011;8043;49.388;12.128;2022-10-31T11:31:45;8.53;;;4.07;;
15889;SDS011;8043;49.388;12.128;2022-10-31T11:36:48;8.80;;;3.90;;
15889;SDS011;8043;49.388;12.128;2022-10-31T11:41:51;12.37;;;3.70;;
15889;SDS011;8043;49.388;12.128;2022-10-31T11:46:55;5.57;;;3.80;;
15889;SDS011;8043;49.388;12.128;2022-10-31T11:52:06;7.57;;;4.30;;
15889;SDS011;8043;49.388;12.128;2022-10-31T11:57:31;8.10;;;3.80;;
15889;SDS011;8043;49.388;12.128;2022-10-31T12:02:34;5.23;;;3.50;;
15889;SDS011;8043;49.388;12.128;2022-10-31T12:07:36;7.70;;;3.63;;
15889;SDS011;8043;49.388;12.128;2022-10-31T12:23:38;8.00;;;3.30;;
15889;SDS011;8043;49.388;12.128;2022-10-31T12:28:45;6.40;;;2.50;;
15889;SDS011;8043;49.388;12.128;2022-10-31T12:39:20;8.13;;;3.60;;
15889;SDS011;8043;49.388;12.128;2022-10-31T12:44:41;6.07;;;2.97;;
15889;SDS011;8043;49.388;12.128;2022-10-31T12:49:54;9.20;;;2.87;;
15889;SDS011;8043;49.388;12.128;2022-10-31T12:55:15;6.57;;;3.07;;
15889;SDS011;8043;49.388;12.128;2022-10-31T13:00:26;7.03;;;3.40;;
15889;SDS011;8043;49.388;12.128;2022-10-31T13:05:36;111.07;;;9.23;;
15889;SDS011;8043;49.388;12.128;2022-10-31T13:16:10;6.03;;;3.40;;
15889;SDS011;8043;49.388;12.128;2022-10-31T13:21:25;11.80;;;3.70;;
15889;SDS011;8043;49.388;12.128;2022-10-31T13:31:51;8.23;;;3.77;;
15889;SDS011;8043;49.388;12.128;2022-10-31T13:36:58;12.87;;;4.53;;
15889;SDS011;8043;49.388;12.128;2022-10-31T13:42:18;6.93;;;4.60;;
15889;SDS011;8043;49.388;12.128;2022-10-31T13:47:25;12.83;;;4.47;;
15889;SDS011;8043;49.388;12.128;2022-10-31T13:52:28;9.67;;;4.77;;
15889;SDS011;8043;49.388;12.128;2022-10-31T13:57:43;12.27;;;4.47;;
15889;SDS011;8043;49.388;12.128;2022-10-31T14:02:48;9.17;;;4.00;;
15889;SDS011;8043;49.388;12.128;2022-10-31T14:07:53;7.47;;;3.83;;
15889;SDS011;8043;49.388;12.128;2022-10-31T14:13:13;16.83;;;4.47;;
15889;SDS011;8043;49.388;12.128;2022-10-31T14:18:20;8.33;;;4.07;;
15889;SDS011;8043;49.388;12.128;2022-10-31T14:28:35;10.73;;;4.93;;
15889;SDS011;8043;49.388;12.128;2022-10-31T14:33:40;9.33;;;4.20;;
15889;SDS011;8043;49.388;12.128;2022-10-31T14:38:47;8.77;;;4.30;;
15889;SDS011;8043;49.388;12.128;2022-10-31T14:54:40;9.60;;;4.07;;
15889;SDS011;8043;49.388;12.128;2022-10-31T14:59:46;11.53;;;4.33;;
15889;SDS011;8043;49.388;12.128;2022-10-31T15:04:50;10.27;;;4.77;;
15889;SDS011;8043;49.388;12.128;2022-10-31T15:09:57;7.60;;;3.70;;
15889;SDS011;8043;49.388;12.128;2022-10-31T15:15:10;8.53;;;3.80;;
15889;SDS011;8043;49.388;12.128;2022-10-31T15:20:22;8.63;;;3.57;;
15889;SDS011;8043;49.388;12.128;2022-10-31T15:25:30;12.37;;;4.30;;
15889;SDS011;8043;49.388;12.128;2022-10-31T15:30:33;7.87;;;5.10;;
15889;SDS011;8043;49.388;12.128;2022-10-31T15:35:35;7.20;;;3.90;;
15889;SDS011;8043;49.388;12.128;2022-10-31T15:40:37;9.10;;;4.73;;
15889;SDS011;8043;49.388;12.128;2022-10-31T15:45:39;10.10;;;5.30;;
15889;SDS011;8043;49.388;12.128;2022-10-31T15:50:47;11.87;;;5.77;;
15889;SDS011;8043;49.388;12.128;2022-10-31T15:55:53;9.47;;;5.33;;
15889;SDS011;8043;49.388;12.128;2022-10-31T16:01:04;13.20;;;5.70;;
15889;SDS011;8043;49.388;12.128;2022-10-31T16:06:18;13.97;;;4.60;;
15889;SDS011;8043;49.388;12.128;2022-10-31T16:11:24;10.90;;;4.70;;
15889;SDS011;8043;49.388;12.128;2022-10-31T16:16:46;8.87;;;4.50;;
15889;SDS011;8043;49.388;12.128;2022-10-31T16:21:44;8.33;;;4.67;;
15889;SDS011;8043;49.388;12.128;2022-10-31T16:26:52;14.43;;;5.37;;
15889;SDS011;8043;49.388;12.128;2022-10-31T16:31:51;8.83;;;5.03;;
15889;SDS011;8043;49.388;12.128;2022-10-31T16:36:53;13.77;;;6.97;;
15889;SDS011;8043;49.388;12.128;2022-10-31T16:41:55;9.67;;;5.43;;
15889;SDS011;8043;49.388;12.128;2022-10-31T16:52:09;12.37;;;6.60;;
15889;SDS011;8043;49.388;12.128;2022-10-31T16:57:15;9.17;;;5.23;;
15889;SDS011;8043;49.388;12.128;2022-10-31T17:02:19;7.43;;;4.27;;
15889;SDS011;8043;49.388;12.128;2022-10-31T17:07:21;9.77;;;4.83;;
15889;SDS011;8043;49.388;12.128;2022-10-31T17:12:24;8.10;;;3.90;;
15889;SDS011;8043;49.388;12.128;2022-10-31T17:17:27;9.57;;;4.20;;
15889;SDS011;8043;49.388;12.128;2022-10-31T17:22:29;14.30;;;7.23;;
15889;SDS011;8043;49.388;12.128;2022-10-31T17:27:32;17.13;;;8.83;;
15889;SDS011;8043;49.388;12.128;2022-10-31T17:32:34;14.13;;;8.50;;
15889;SDS011;8043;49.388;12.128;2022-10-31T17:37:38;10.67;;;5.77;;
15889;SDS011;8043;49.388;12.128;2022-10-31T17:42:47;20.97;;;10.90;;
15889;SDS011;8043;49.388;12.128;2022-10-31T17:47:51;12.53;;;7.83;;
15889;SDS011;8043;49.388;12.128;2022-10-31T17:52:54;10.93;;;6.70;;
15889;SDS011;8043;49.388;12.128;2022-10-31T17:57:58;13.87;;;5.80;;
15889;SDS011;8043;49.388;12.128;2022-10-31T18:03:00;13.90;;;7.90;;
15889;SDS011;8043;49.388;12.128;2022-10-31T18:08:03;16.10;;;6.80;;
15889;SDS011;8043;49.388;12.128;2022-10-31T18:13:06;12.20;;;6.47;;
15889;SDS011;8043;49.388;12.128;2022-10-31T18:18:08;14.07;;;7.20;;
15889;SDS011;8043;49.388;12.128;2022-10-31T18:23:10;13.50;;;7.83;;
15889;SDS011;8043;49.388;12.128;2022-10-31T18:28:12;13.63;;;7.60;;
15889;SDS011;8043;49.388;12.128;2022-10-31T18:33:15;26.87;;;13.37;;
15889;SDS011;8043;49.388;12.128;2022-10-31T18:38:25;34.77;;;17.50;;
15889;SDS011;8043;49.388;12.128;2022-10-31T18:43:31;27.67;;;14.30;;
15889;SDS011;8043;49.388;12.128;2022-10-31T18:48:36;21.43;;;12.03;;
15889;SDS011;8043;49.388;12.128;2022-10-31T18:53:40;20.30;;;11.87;;
15889;SDS011;8043;49.388;12.128;2022-10-31T18:58:43;18.40;;;10.60;;
15889;SDS011;8043;49.388;12.128;2022-10-31T19:03:51;14.93;;;8.37;;
15889;SDS011;8043;49.388;12.128;2022-10-31T19:08:59;13.10;;;7.33;;
15889;SDS011;8043;49.388;12.128;2022-10-31T19:14:04;12.03;;;6.60;;
15889;SDS011;8043;49.388;12.128;2022-10-31T19:19:08;13.43;;;7.77;;
15889;SDS011;8043;49.388;12.128;2022-10-31T19:24:10;12.43;;;6.10;;
15889;SDS011;8043;49.388;12.128;2022-10-31T19:29:14;9.83;;;5.20;;
15889;SDS011;8043;49.388;12.128;2022-10-31T19:34:18;8.80;;;5.20;;
15889;SDS011;8043;49.388;12.128;2022-10-31T19:39:21;10.50;;;5.17;;
15889;SDS011;8043;49.388;12.128;2022-10-31T19:44:27;11.40;;;5.93;;
15889;SDS011;8043;49.388;12.128;2022-10-31T19:49:33;12.13;;;6.30;;
15889;SDS011;8043;49.388;12.128;2022-10-31T19:54:36;12.53;;;6.87;;
15889;SDS011;8043;49.388;12.128;2022-10-31T19:59:39;13.83;;;7.77;;
15889;SDS011;8043;49.388;12.128;2022-10-31T20:04:42;36.93;;;19.47;;
15889;SDS011;8043;49.388;12.128;2022-10-31T20:09:45;23.83;;;11.73;;
15889;SDS011;8043;49.388;12.128;2022-10-31T20:14:51;11.70;;;7.37;;
15889;SDS011;8043;49.388;12.128;2022-10-31T20:19:54;14.47;;;7.33;;
15889;SDS011;8043;49.388;12.128;2022-10-31T20:24:57;11.77;;;6.00;;
15889;SDS011;8043;49.388;12.128;2022-10-31T20:30:00;12.20;;;6.07;;
15889;SDS011;8043;49.388;12.128;2022-10-31T20:35:04;13.83;;;5.93;;
15889;SDS011;8043;49.388;12.128;2022-10-31T20:40:08;11.87;;;6.10;;
15889;SDS011;8043;49.388;12.128;2022-10-31T20:45:11;16.93;;;8.40;;
15889;SDS011;8043;49.388;12.128;2022-10-31T20:50:14;17.13;;;10.10;;
15889;SDS011;8043;49.388;12.128;2022-10-31T20:55:17;16.23;;;9.30;;
15889;SDS011;8043;49.388;12.128;2022-10-31T21:00:20;13.40;;;7.27;;
15889;SDS011;8043;49.388;12.128;2022-10-31T21:05:23;22.87;;;11.47;;
15889;SDS011;8043;49.388;12.128;2022-10-31T21:10:26;20.73;;;10.47;;
15889;SDS011;8043;49.388;12.128;2022-10-31T21:15:30;30.83;;;11.80;;
15889;SDS011;8043;49.388;12.128;2022-10-31T21:20:33;12.13;;;6.73;;
15889;SDS011;8043;49.388;12.128;2022-10-31T21:25:38;9.77;;;4.87;;
15889;SDS011;8043;49.388;12.128;2022-10-31T21:30:42;12.03;;;6.17;;
15889;SDS011;8043;49.388;12.128;2022-10-31T21:35:49;18.57;;;10.73;;
15889;SDS011;8043;49.388;12.128;2022-10-31T21:41:04;38.77;;;19.50;;
15889;SDS011;8043;49.388;12.128;2022-10-31T21:46:08;21.97;;;10.27;;
15889;SDS011;8043;49.388;12.128;2022-10-31T21:51:16;10.47;;;6.00;;
15889;SDS011;8043;49.388;12.128;2022-10-31T21:56:21;18.50;;;6.93;;
15889;SDS011;8043;49.388;12.128;2022-10-31T22:01:25;27.43;;;8.90;;
15889;SDS011;8043;49.388;12.128;2022-10-31T22:06:30;40.97;;;14.97;;
15889;SDS011;8043;49.388;12.128;2022-10-31T22:11:33;60.73;;;19.93;;
15889;SDS011;8043;49.388;12.128;2022-10-31T22:16:37;42.43;;;15.30;;
15889;SDS011;8043;49.388;12.128;2022-10-31T22:21:41;48.10;;;16.23;;
15889;SDS011;8043;49.388;12.128;2022-10-31T22:26:46;30.45;;;12.80;;
15889;SDS011;8043;49.388;12.128;2022-10-31T22:31:49;13.83;;;6.20;;
15889;SDS011;8043;49.388;12.128;2022-10-31T22:36:53;10.13;;;4.67;;
15889;SDS011;8043;49.388;12.128;2022-10-31T22:41:56;15.30;;;4.97;;
15889;SDS011;8043;49.388;12.128;2022-10-31T22:46:58;7.13;;;4.23;;
15889;SDS011;8043;49.388;12.128;2022-10-31T22:52:01;10.33;;;5.03;;
15889;SDS011;8043;49.388;12.128;2022-10-31T22:57:03;21.40;;;8.87;;
15889;SDS011;8043;49.388;12.128;2022-10-31T23:02:05;25.53;;;10.53;;
15889;SDS011;8043;49.388;12.128;2022-10-31T23:07:07;20.43;;;10.40;;
15889;SDS011;8043;49.388;12.128;2022-10-31T23:12:09;17.00;;;9.77;;
15889;SDS011;8043;49.388;12.128;2022-10-31T23:17:22;23.33;;;10.00;;
15889;SDS011;8043;49.388;12.128;2022-10-31T23:22:24;30.10;;;10.23;;
15889;SDS011;8043;49.388;12.128;2022-10-31T23:27:26;19.33;;;7.97;;
15889;SDS011;8043;49.388;12.128;2022-10-31T23:32:30;15.90;;;6.43;;
15889;SDS011;8043;49.388;12.128;2022-10-31T23:37:35;8.70;;;4.50;;
15889;SDS011;8043;49.388;12.128;2022-10-31T23:42:38;15.37;;;6.77;;
15889;SDS011;8043;49.388;12.128;2022-10-31T23:47:40;9.90;;;5.30;;
15889;SDS011;8043;49.388;12.128;2022-10-31T23:52:42;6.20;;;4.20;;
15889;SDS011;8043;49.388;12.128;2022-10-31T23:57:45;7.20;;;4.17;;
